sensor_id;sensor_type;location;lat;lon;timestamp;temperature;humidity
23291;DHT22;11814;44.686;10.842;2023-04-15T00:01:21;10.80;68.50
23291;DHT22;11814;44.686;10.842;2023-04-15T00:03:47;10.70;68.70
23291;DHT22;11814;44.686;10.842;2023-04-15T00:06:13;10.70;69.00
23291;DHT22;11814;44.686;10.842;2023-04-15T00:08:39;10.70;69.50
23291;DHT22;11814;44.686;10.842;2023-04-15T00:11:04;10.70;69.40
23291;DHT22;11814;44.686;10.842;2023-04-15T00:13:33;10.70;69.40
23291;DHT22;11814;44.686;10.842;2023-04-15T00:15:59;10.60;69.60
23291;DHT22;11814;44.686;10.842;2023-04-15T00:18:26;10.50;70.20
23291;DHT22;11814;44.686;10.842;2023-04-15T00:20:51;10.40;70.60
23291;DHT22;11814;44.686;10.842;2023-04-15T00:23:17;10.40;70.90
23291;DHT22;11814;44.686;10.842;2023-04-15T00:25:43;10.40;71.20
23291;DHT22;11814;44.686;10.842;2023-04-15T00:28:09;10.30;71.50
23291;DHT22;11814;44.686;10.842;2023-04-15T00:30:35;10.40;71.80
23291;DHT22;11814;44.686;10.842;2023-04-15T00:33:01;10.40;72.10
23291;DHT22;11814;44.686;10.842;2023-04-15T00:35:28;10.40;72.40
23291;DHT22;11814;44.686;10.842;2023-04-15T00:37:54;10.30;72.50
23291;DHT22;11814;44.686;10.842;2023-04-15T00:40:20;10.30;73.10
23291;DHT22;11814;44.686;10.842;2023-04-15T00:42:46;10.20;73.70
23291;DHT22;11814;44.686;10.842;2023-04-15T00:45:12;10.20;74.30
23291;DHT22;11814;44.686;10.842;2023-04-15T00:47:40;10.20;74.40
23291;DHT22;11814;44.686;10.842;2023-04-15T00:50:07;10.20;74.80
23291;DHT22;11814;44.686;10.842;2023-04-15T00:52:33;10.20;75.00
23291;DHT22;11814;44.686;10.842;2023-04-15T00:54:59;10.10;75.30
23291;DHT22;11814;44.686;10.842;2023-04-15T00:57:25;10.00;75.40
23291;DHT22;11814;44.686;10.842;2023-04-15T00:59:54;9.90;75.60
23291;DHT22;11814;44.686;10.842;2023-04-15T01:02:21;9.80;76.10
23291;DHT22;11814;44.686;10.842;2023-04-15T01:04:48;9.70;76.70
23291;DHT22;11814;44.686;10.842;2023-04-15T01:07:14;9.60;76.70
23291;DHT22;11814;44.686;10.842;2023-04-15T01:09:40;9.50;76.80
23291;DHT22;11814;44.686;10.842;2023-04-15T01:12:06;9.40;77.30
23291;DHT22;11814;44.686;10.842;2023-04-15T01:14:33;9.40;77.40
23291;DHT22;11814;44.686;10.842;2023-04-15T01:16:59;9.30;77.50
23291;DHT22;11814;44.686;10.842;2023-04-15T01:19:25;9.30;77.60
23291;DHT22;11814;44.686;10.842;2023-04-15T01:21:52;9.30;77.80
23291;DHT22;11814;44.686;10.842;2023-04-15T01:24:18;9.20;78.20
23291;DHT22;11814;44.686;10.842;2023-04-15T01:26:44;9.10;78.50
23291;DHT22;11814;44.686;10.842;2023-04-15T01:29:10;9.00;78.80
23291;DHT22;11814;44.686;10.842;2023-04-15T01:31:36;8.90;79.00
23291;DHT22;11814;44.686;10.842;2023-04-15T01:34:01;8.90;79.60
23291;DHT22;11814;44.686;10.842;2023-04-15T01:36:27;8.80;79.50
23291;DHT22;11814;44.686;10.842;2023-04-15T01:38:55;8.90;79.60
23291;DHT22;11814;44.686;10.842;2023-04-15T01:41:27;8.90;79.90
23291;DHT22;11814;44.686;10.842;2023-04-15T01:43:53;8.80;79.60
23291;DHT22;11814;44.686;10.842;2023-04-15T01:46:20;8.80;80.00
23291;DHT22;11814;44.686;10.842;2023-04-15T01:48:46;8.70;80.40
23291;DHT22;11814;44.686;10.842;2023-04-15T01:51:11;8.70;80.50
23291;DHT22;11814;44.686;10.842;2023-04-15T01:53:37;8.60;80.40
23291;DHT22;11814;44.686;10.842;2023-04-15T01:56:03;8.60;80.40
23291;DHT22;11814;44.686;10.842;2023-04-15T01:58:29;8.60;81.40
23291;DHT22;11814;44.686;10.842;2023-04-15T02:00:55;8.60;80.80
23291;DHT22;11814;44.686;10.842;2023-04-15T02:03:22;8.60;80.80
23291;DHT22;11814;44.686;10.842;2023-04-15T02:05:48;8.70;80.80
23291;DHT22;11814;44.686;10.842;2023-04-15T02:08:13;8.60;81.40
23291;DHT22;11814;44.686;10.842;2023-04-15T02:10:39;8.60;81.20
23291;DHT22;11814;44.686;10.842;2023-04-15T02:13:05;8.60;81.40
23291;DHT22;11814;44.686;10.842;2023-04-15T02:15:31;8.60;81.80
23291;DHT22;11814;44.686;10.842;2023-04-15T02:17:57;8.60;81.90
23291;DHT22;11814;44.686;10.842;2023-04-15T02:20:25;8.50;82.20
23291;DHT22;11814;44.686;10.842;2023-04-15T02:22:51;8.50;82.00
23291;DHT22;11814;44.686;10.842;2023-04-15T02:25:16;8.40;82.40
23291;DHT22;11814;44.686;10.842;2023-04-15T02:27:43;8.40;83.40
23291;DHT22;11814;44.686;10.842;2023-04-15T02:30:09;8.50;83.00
23291;DHT22;11814;44.686;10.842;2023-04-15T02:32:35;8.50;83.20
23291;DHT22;11814;44.686;10.842;2023-04-15T02:35:06;8.50;83.20
23291;DHT22;11814;44.686;10.842;2023-04-15T02:37:35;8.50;83.70
23291;DHT22;11814;44.686;10.842;2023-04-15T02:40:14;8.50;84.10
23291;DHT22;11814;44.686;10.842;2023-04-15T02:42:40;8.50;84.60
23291;DHT22;11814;44.686;10.842;2023-04-15T02:45:07;8.60;84.80
23291;DHT22;11814;44.686;10.842;2023-04-15T02:47:34;8.60;85.30
23291;DHT22;11814;44.686;10.842;2023-04-15T02:50:03;8.50;85.70
23291;DHT22;11814;44.686;10.842;2023-04-15T02:52:29;8.60;86.20
23291;DHT22;11814;44.686;10.842;2023-04-15T02:54:55;8.60;86.50
23291;DHT22;11814;44.686;10.842;2023-04-15T02:57:26;8.60;86.50
23291;DHT22;11814;44.686;10.842;2023-04-15T02:59:52;8.70;86.60
23291;DHT22;11814;44.686;10.842;2023-04-15T03:02:18;8.70;86.60
23291;DHT22;11814;44.686;10.842;2023-04-15T03:04:44;8.80;86.50
23291;DHT22;11814;44.686;10.842;2023-04-15T03:07:09;8.80;86.50
23291;DHT22;11814;44.686;10.842;2023-04-15T03:09:35;8.80;86.50
23291;DHT22;11814;44.686;10.842;2023-04-15T03:12:01;8.90;86.50
23291;DHT22;11814;44.686;10.842;2023-04-15T03:14:27;8.90;86.50
23291;DHT22;11814;44.686;10.842;2023-04-15T03:16:53;8.90;86.30
23291;DHT22;11814;44.686;10.842;2023-04-15T03:19:18;8.80;86.10
23291;DHT22;11814;44.686;10.842;2023-04-15T03:21:44;8.70;86.20
23291;DHT22;11814;44.686;10.842;2023-04-15T03:24:10;8.70;86.60
23291;DHT22;11814;44.686;10.842;2023-04-15T03:26:36;8.70;86.60
23291;DHT22;11814;44.686;10.842;2023-04-15T03:29:02;8.70;86.70
23291;DHT22;11814;44.686;10.842;2023-04-15T03:31:27;8.70;86.90
23291;DHT22;11814;44.686;10.842;2023-04-15T03:33:53;8.60;86.90
23291;DHT22;11814;44.686;10.842;2023-04-15T03:36:19;8.50;86.90
23291;DHT22;11814;44.686;10.842;2023-04-15T03:38:45;8.50;86.90
23291;DHT22;11814;44.686;10.842;2023-04-15T03:41:10;8.50;86.90
23291;DHT22;11814;44.686;10.842;2023-04-15T03:43:36;8.50;87.00
23291;DHT22;11814;44.686;10.842;2023-04-15T03:46:02;8.50;87.80
23291;DHT22;11814;44.686;10.842;2023-04-15T03:48:28;8.50;87.00
23291;DHT22;11814;44.686;10.842;2023-04-15T03:50:54;8.50;87.00
23291;DHT22;11814;44.686;10.842;2023-04-15T03:53:20;8.50;87.10
23291;DHT22;11814;44.686;10.842;2023-04-15T03:55:46;8.50;87.00
23291;DHT22;11814;44.686;10.842;2023-04-15T03:58:12;8.50;87.00
23291;DHT22;11814;44.686;10.842;2023-04-15T04:00:38;8.50;86.90
23291;DHT22;11814;44.686;10.842;2023-04-15T04:03:05;8.50;86.60
23291;DHT22;11814;44.686;10.842;2023-04-15T04:05:31;8.60;86.40
23291;DHT22;11814;44.686;10.842;2023-04-15T04:07:57;8.60;86.40
23291;DHT22;11814;44.686;10.842;2023-04-15T04:10:23;8.60;86.20
23291;DHT22;11814;44.686;10.842;2023-04-15T04:12:48;8.60;86.20
23291;DHT22;11814;44.686;10.842;2023-04-15T04:15:14;8.60;86.40
23291;DHT22;11814;44.686;10.842;2023-04-15T04:17:40;8.60;86.50
23291;DHT22;11814;44.686;10.842;2023-04-15T04:20:07;8.60;86.50
23291;DHT22;11814;44.686;10.842;2023-04-15T04:22:37;8.60;86.70
23291;DHT22;11814;44.686;10.842;2023-04-15T04:25:04;8.60;86.90
23291;DHT22;11814;44.686;10.842;2023-04-15T04:27:30;8.60;86.90
23291;DHT22;11814;44.686;10.842;2023-04-15T04:29:56;8.60;86.90
23291;DHT22;11814;44.686;10.842;2023-04-15T04:32:21;8.50;86.90
23291;DHT22;11814;44.686;10.842;2023-04-15T04:34:47;8.50;87.00
23291;DHT22;11814;44.686;10.842;2023-04-15T04:37:13;8.50;87.10
23291;DHT22;11814;44.686;10.842;2023-04-15T04:39:39;8.50;87.00
23291;DHT22;11814;44.686;10.842;2023-04-15T04:42:05;8.50;87.00
23291;DHT22;11814;44.686;10.842;2023-04-15T04:44:30;8.50;87.20
23291;DHT22;11814;44.686;10.842;2023-04-15T04:46:56;8.50;87.20
23291;DHT22;11814;44.686;10.842;2023-04-15T04:49:22;8.50;87.10
23291;DHT22;11814;44.686;10.842;2023-04-15T04:51:48;8.50;87.40
23291;DHT22;11814;44.686;10.842;2023-04-15T04:54:13;8.50;87.50
23291;DHT22;11814;44.686;10.842;2023-04-15T04:56:39;8.50;87.50
23291;DHT22;11814;44.686;10.842;2023-04-15T04:59:05;8.50;87.50
23291;DHT22;11814;44.686;10.842;2023-04-15T05:01:32;8.40;87.50
23291;DHT22;11814;44.686;10.842;2023-04-15T05:03:58;8.30;87.30
23291;DHT22;11814;44.686;10.842;2023-04-15T05:06:24;8.20;87.60
23291;DHT22;11814;44.686;10.842;2023-04-15T05:08:50;8.20;87.70
23291;DHT22;11814;44.686;10.842;2023-04-15T05:11:16;8.10;88.00
23291;DHT22;11814;44.686;10.842;2023-04-15T05:13:42;8.10;88.50
23291;DHT22;11814;44.686;10.842;2023-04-15T05:16:08;8.00;88.40
23291;DHT22;11814;44.686;10.842;2023-04-15T05:18:33;8.00;88.90
23291;DHT22;11814;44.686;10.842;2023-04-15T05:20:59;8.00;89.20
23291;DHT22;11814;44.686;10.842;2023-04-15T05:23:25;8.00;89.00
23291;DHT22;11814;44.686;10.842;2023-04-15T05:25:51;8.20;89.00
23291;DHT22;11814;44.686;10.842;2023-04-15T05:28:17;8.30;89.00
23291;DHT22;11814;44.686;10.842;2023-04-15T05:30:43;8.30;88.60
23291;DHT22;11814;44.686;10.842;2023-04-15T05:33:08;8.30;88.40
23291;DHT22;11814;44.686;10.842;2023-04-15T05:35:34;8.30;88.50
23291;DHT22;11814;44.686;10.842;2023-04-15T05:38:00;8.30;88.90
23291;DHT22;11814;44.686;10.842;2023-04-15T05:40:25;8.30;89.10
23291;DHT22;11814;44.686;10.842;2023-04-15T05:42:51;8.30;89.20
23291;DHT22;11814;44.686;10.842;2023-04-15T05:45:17;8.30;89.30
23291;DHT22;11814;44.686;10.842;2023-04-15T05:47:43;8.50;89.70
23291;DHT22;11814;44.686;10.842;2023-04-15T05:50:09;8.70;89.70
23291;DHT22;11814;44.686;10.842;2023-04-15T05:52:35;8.80;89.30
23291;DHT22;11814;44.686;10.842;2023-04-15T05:55:01;9.00;89.20
23291;DHT22;11814;44.686;10.842;2023-04-15T05:57:27;9.00;89.30
23291;DHT22;11814;44.686;10.842;2023-04-15T05:59:52;9.30;89.60
23291;DHT22;11814;44.686;10.842;2023-04-15T06:02:18;9.40;89.60
23291;DHT22;11814;44.686;10.842;2023-04-15T06:04:44;9.60;89.60
23291;DHT22;11814;44.686;10.842;2023-04-15T06:07:10;9.70;89.20
23291;DHT22;11814;44.686;10.842;2023-04-15T06:09:35;9.80;89.30
23291;DHT22;11814;44.686;10.842;2023-04-15T06:12:01;10.00;89.50
23291;DHT22;11814;44.686;10.842;2023-04-15T06:14:27;10.40;89.50
23291;DHT22;11814;44.686;10.842;2023-04-15T06:16:53;10.70;88.90
23291;DHT22;11814;44.686;10.842;2023-04-15T06:19:19;11.10;88.20
23291;DHT22;11814;44.686;10.842;2023-04-15T06:21:45;11.30;88.10
23291;DHT22;11814;44.686;10.842;2023-04-15T06:24:11;11.70;88.60
23291;DHT22;11814;44.686;10.842;2023-04-15T06:26:37;12.10;88.60
23291;DHT22;11814;44.686;10.842;2023-04-15T06:29:02;12.30;88.50
23291;DHT22;11814;44.686;10.842;2023-04-15T06:31:29;12.80;89.50
23291;DHT22;11814;44.686;10.842;2023-04-15T06:33:54;13.40;88.90
23291;DHT22;11814;44.686;10.842;2023-04-15T06:36:20;13.90;87.80
23291;DHT22;11814;44.686;10.842;2023-04-15T06:38:46;14.20;86.40
23291;DHT22;11814;44.686;10.842;2023-04-15T06:41:12;14.50;86.20
23291;DHT22;11814;44.686;10.842;2023-04-15T06:43:38;14.80;85.50
23291;DHT22;11814;44.686;10.842;2023-04-15T06:46:04;15.00;83.30
23291;DHT22;11814;44.686;10.842;2023-04-15T06:48:30;15.00;82.90
23291;DHT22;11814;44.686;10.842;2023-04-15T06:50:56;14.90;83.00
23291;DHT22;11814;44.686;10.842;2023-04-15T06:53:24;14.70;83.30
23291;DHT22;11814;44.686;10.842;2023-04-15T06:55:52;14.50;84.00
23291;DHT22;11814;44.686;10.842;2023-04-15T06:58:18;14.30;84.30
23291;DHT22;11814;44.686;10.842;2023-04-15T07:00:44;14.00;84.90
23291;DHT22;11814;44.686;10.842;2023-04-15T07:03:11;13.90;85.80
23291;DHT22;11814;44.686;10.842;2023-04-15T07:05:37;13.90;86.90
23291;DHT22;11814;44.686;10.842;2023-04-15T07:08:04;14.00;87.00
23291;DHT22;11814;44.686;10.842;2023-04-15T07:10:30;14.10;87.40
23291;DHT22;11814;44.686;10.842;2023-04-15T07:12:56;14.40;87.50
23291;DHT22;11814;44.686;10.842;2023-04-15T07:15:21;14.70;86.60
23291;DHT22;11814;44.686;10.842;2023-04-15T07:17:48;14.80;85.90
23291;DHT22;11814;44.686;10.842;2023-04-15T07:20:13;14.80;85.60
23291;DHT22;11814;44.686;10.842;2023-04-15T07:22:39;14.70;85.60
23291;DHT22;11814;44.686;10.842;2023-04-15T07:25:05;14.50;86.20
23291;DHT22;11814;44.686;10.842;2023-04-15T07:27:32;14.40;87.00
23291;DHT22;11814;44.686;10.842;2023-04-15T07:29:57;14.30;87.70
23291;DHT22;11814;44.686;10.842;2023-04-15T07:32:23;14.30;88.90
23291;DHT22;11814;44.686;10.842;2023-04-15T07:34:49;14.40;89.20
23291;DHT22;11814;44.686;10.842;2023-04-15T07:37:15;14.60;90.00
23291;DHT22;11814;44.686;10.842;2023-04-15T07:39:40;14.90;89.60
23291;DHT22;11814;44.686;10.842;2023-04-15T07:42:07;15.30;88.90
23291;DHT22;11814;44.686;10.842;2023-04-15T07:44:33;15.70;87.80
23291;DHT22;11814;44.686;10.842;2023-04-15T07:46:58;15.70;86.50
23291;DHT22;11814;44.686;10.842;2023-04-15T07:49:24;15.80;86.00
23291;DHT22;11814;44.686;10.842;2023-04-15T07:51:50;15.70;85.30
23291;DHT22;11814;44.686;10.842;2023-04-15T07:54:16;15.80;86.20
23291;DHT22;11814;44.686;10.842;2023-04-15T07:56:42;15.90;85.50
23291;DHT22;11814;44.686;10.842;2023-04-15T07:59:08;15.90;85.30
23291;DHT22;11814;44.686;10.842;2023-04-15T08:01:34;15.90;85.10
23291;DHT22;11814;44.686;10.842;2023-04-15T08:04:00;16.00;85.50
23291;DHT22;11814;44.686;10.842;2023-04-15T08:06:26;16.30;85.70
23291;DHT22;11814;44.686;10.842;2023-04-15T08:08:52;16.60;84.80
23291;DHT22;11814;44.686;10.842;2023-04-15T08:11:19;16.80;83.30
23291;DHT22;11814;44.686;10.842;2023-04-15T08:13:46;17.00;82.50
23291;DHT22;11814;44.686;10.842;2023-04-15T08:16:21;17.20;81.30
23291;DHT22;11814;44.686;10.842;2023-04-15T08:18:48;17.60;79.50
23291;DHT22;11814;44.686;10.842;2023-04-15T08:21:15;17.80;77.00
23291;DHT22;11814;44.686;10.842;2023-04-15T08:23:42;17.70;75.90
23291;DHT22;11814;44.686;10.842;2023-04-15T08:26:08;17.50;75.20
23291;DHT22;11814;44.686;10.842;2023-04-15T08:28:35;17.40;75.30
23291;DHT22;11814;44.686;10.842;2023-04-15T08:31:01;17.30;75.50
23291;DHT22;11814;44.686;10.842;2023-04-15T08:33:27;17.40;75.50
23291;DHT22;11814;44.686;10.842;2023-04-15T08:35:53;17.60;74.80
23291;DHT22;11814;44.686;10.842;2023-04-15T08:38:19;17.80;74.10
23291;DHT22;11814;44.686;10.842;2023-04-15T08:40:45;17.90;73.40
23291;DHT22;11814;44.686;10.842;2023-04-15T08:43:33;17.90;73.00
23291;DHT22;11814;44.686;10.842;2023-04-15T08:45:59;17.90;73.60
23291;DHT22;11814;44.686;10.842;2023-04-15T08:48:31;17.90;73.90
23291;DHT22;11814;44.686;10.842;2023-04-15T08:50:57;17.80;74.10
23291;DHT22;11814;44.686;10.842;2023-04-15T08:53:24;17.70;73.70
23291;DHT22;11814;44.686;10.842;2023-04-15T08:55:51;17.60;73.40
23291;DHT22;11814;44.686;10.842;2023-04-15T08:58:18;17.50;72.10
23291;DHT22;11814;44.686;10.842;2023-04-15T09:00:44;17.40;71.70
23291;DHT22;11814;44.686;10.842;2023-04-15T09:03:10;17.30;72.00
23291;DHT22;11814;44.686;10.842;2023-04-15T09:05:36;17.10;73.20
23291;DHT22;11814;44.686;10.842;2023-04-15T09:08:04;17.00;74.20
23291;DHT22;11814;44.686;10.842;2023-04-15T09:10:30;16.90;74.50
23291;DHT22;11814;44.686;10.842;2023-04-15T09:12:57;16.80;75.30
23291;DHT22;11814;44.686;10.842;2023-04-15T09:15:25;16.80;74.90
23291;DHT22;11814;44.686;10.842;2023-04-15T09:17:54;16.90;74.60
23291;DHT22;11814;44.686;10.842;2023-04-15T09:20:21;17.10;74.10
23291;DHT22;11814;44.686;10.842;2023-04-15T09:22:48;17.10;73.70
23291;DHT22;11814;44.686;10.842;2023-04-15T09:27:50;17.10;74.10
23291;DHT22;11814;44.686;10.842;2023-04-15T09:30:16;17.00;74.40
23291;DHT22;11814;44.686;10.842;2023-04-15T09:35:23;17.20;74.00
23291;DHT22;11814;44.686;10.842;2023-04-15T09:37:53;17.20;73.60
23291;DHT22;11814;44.686;10.842;2023-04-15T09:43:04;17.50;72.80
23291;DHT22;11814;44.686;10.842;2023-04-15T09:45:32;17.60;72.30
23291;DHT22;11814;44.686;10.842;2023-04-15T09:48:00;17.80;71.80
23291;DHT22;11814;44.686;10.842;2023-04-15T09:50:40;17.90;71.70
23291;DHT22;11814;44.686;10.842;2023-04-15T09:53:09;18.00;71.10
23291;DHT22;11814;44.686;10.842;2023-04-15T09:55:36;18.10;70.50
23291;DHT22;11814;44.686;10.842;2023-04-15T09:58:08;18.00;70.20
23291;DHT22;11814;44.686;10.842;2023-04-15T10:00:35;18.00;70.60
23291;DHT22;11814;44.686;10.842;2023-04-15T10:03:03;18.10;70.60
23291;DHT22;11814;44.686;10.842;2023-04-15T10:05:30;18.20;70.00
23291;DHT22;11814;44.686;10.842;2023-04-15T10:07:57;18.30;69.20
23291;DHT22;11814;44.686;10.842;2023-04-15T10:10:23;18.40;68.80
23291;DHT22;11814;44.686;10.842;2023-04-15T10:12:50;18.50;68.90
23291;DHT22;11814;44.686;10.842;2023-04-15T10:15:17;18.40;68.60
23291;DHT22;11814;44.686;10.842;2023-04-15T10:17:44;18.40;68.90
23291;DHT22;11814;44.686;10.842;2023-04-15T10:20:10;18.40;68.10
23291;DHT22;11814;44.686;10.842;2023-04-15T10:22:38;18.30;67.80
23291;DHT22;11814;44.686;10.842;2023-04-15T10:25:05;18.30;67.80
23291;DHT22;11814;44.686;10.842;2023-04-15T10:27:32;18.40;67.70
23291;DHT22;11814;44.686;10.842;2023-04-15T10:29:59;18.40;67.20
23291;DHT22;11814;44.686;10.842;2023-04-15T10:32:28;18.40;66.20
23291;DHT22;11814;44.686;10.842;2023-04-15T10:34:55;18.40;65.90
23291;DHT22;11814;44.686;10.842;2023-04-15T10:37:22;18.40;64.70
23291;DHT22;11814;44.686;10.842;2023-04-15T10:39:57;18.40;65.00
23291;DHT22;11814;44.686;10.842;2023-04-15T10:42:23;18.50;65.70
23291;DHT22;11814;44.686;10.842;2023-04-15T10:44:50;18.60;66.30
23291;DHT22;11814;44.686;10.842;2023-04-15T10:47:18;18.60;66.50
23291;DHT22;11814;44.686;10.842;2023-04-15T10:49:55;18.60;66.20
23291;DHT22;11814;44.686;10.842;2023-04-15T10:52:23;18.60;66.30
23291;DHT22;11814;44.686;10.842;2023-04-15T10:57:40;18.70;66.40
23291;DHT22;11814;44.686;10.842;2023-04-15T11:02:42;18.70;66.90
23291;DHT22;11814;44.686;10.842;2023-04-15T11:05:09;18.70;67.60
23291;DHT22;11814;44.686;10.842;2023-04-15T11:07:53;18.90;67.50
23291;DHT22;11814;44.686;10.842;2023-04-15T11:12:53;19.00;67.90
23291;DHT22;11814;44.686;10.842;2023-04-15T11:20:39;19.20;65.70
23291;DHT22;11814;44.686;10.842;2023-04-15T11:23:05;19.20;65.70
23291;DHT22;11814;44.686;10.842;2023-04-15T11:25:32;19.20;65.60
23291;DHT22;11814;44.686;10.842;2023-04-15T11:27:59;19.20;65.90
23291;DHT22;11814;44.686;10.842;2023-04-15T11:30:28;19.20;65.60
23291;DHT22;11814;44.686;10.842;2023-04-15T11:32:58;19.20;65.30
23291;DHT22;11814;44.686;10.842;2023-04-15T11:35:24;19.20;65.10
23291;DHT22;11814;44.686;10.842;2023-04-15T11:37:50;19.30;65.00
23291;DHT22;11814;44.686;10.842;2023-04-15T11:40:21;19.40;64.90
23291;DHT22;11814;44.686;10.842;2023-04-15T11:43:15;19.50;64.30
23291;DHT22;11814;44.686;10.842;2023-04-15T11:45:59;19.40;63.70
23291;DHT22;11814;44.686;10.842;2023-04-15T11:48:27;19.30;63.80
23291;DHT22;11814;44.686;10.842;2023-04-15T11:50:54;19.30;64.00
23291;DHT22;11814;44.686;10.842;2023-04-15T11:53:20;19.40;63.70
23291;DHT22;11814;44.686;10.842;2023-04-15T11:55:52;19.40;62.80
23291;DHT22;11814;44.686;10.842;2023-04-15T11:58:19;19.40;63.20
23291;DHT22;11814;44.686;10.842;2023-04-15T12:00:51;19.40;63.20
23291;DHT22;11814;44.686;10.842;2023-04-15T12:03:29;19.50;63.50
23291;DHT22;11814;44.686;10.842;2023-04-15T12:06:14;19.50;63.80
23291;DHT22;11814;44.686;10.842;2023-04-15T12:11:34;19.60;63.90
23291;DHT22;11814;44.686;10.842;2023-04-15T12:16:36;19.60;62.00
23291;DHT22;11814;44.686;10.842;2023-04-15T12:19:08;19.70;62.00
23291;DHT22;11814;44.686;10.842;2023-04-15T12:21:37;19.70;62.00
23291;DHT22;11814;44.686;10.842;2023-04-15T12:24:08;19.80;62.30
23291;DHT22;11814;44.686;10.842;2023-04-15T12:29:10;19.70;61.70
23291;DHT22;11814;44.686;10.842;2023-04-15T12:32:07;19.70;60.90
23291;DHT22;11814;44.686;10.842;2023-04-15T12:34:34;19.80;59.50
23291;DHT22;11814;44.686;10.842;2023-04-15T12:37:01;19.80;59.30
23291;DHT22;11814;44.686;10.842;2023-04-15T12:39:28;19.80;59.20
23291;DHT22;11814;44.686;10.842;2023-04-15T12:41:54;19.90;59.00
23291;DHT22;11814;44.686;10.842;2023-04-15T12:44:22;19.90;59.20
23291;DHT22;11814;44.686;10.842;2023-04-15T12:46:52;20.00;58.80
23291;DHT22;11814;44.686;10.842;2023-04-15T12:49:19;19.90;58.60
23291;DHT22;11814;44.686;10.842;2023-04-15T12:51:50;19.80;58.00
23291;DHT22;11814;44.686;10.842;2023-04-15T12:54:17;19.80;57.80
23291;DHT22;11814;44.686;10.842;2023-04-15T12:56:43;19.90;58.00
23291;DHT22;11814;44.686;10.842;2023-04-15T12:59:10;19.90;58.40
23291;DHT22;11814;44.686;10.842;2023-04-15T13:01:37;20.00;58.40
23291;DHT22;11814;44.686;10.842;2023-04-15T13:04:04;20.00;58.20
23291;DHT22;11814;44.686;10.842;2023-04-15T13:06:30;20.10;57.70
23291;DHT22;11814;44.686;10.842;2023-04-15T13:08:58;20.00;57.40
23291;DHT22;11814;44.686;10.842;2023-04-15T13:11:24;20.00;57.00
23291;DHT22;11814;44.686;10.842;2023-04-15T13:13:50;19.90;57.30
23291;DHT22;11814;44.686;10.842;2023-04-15T13:16:17;19.90;57.40
23291;DHT22;11814;44.686;10.842;2023-04-15T13:18:43;19.90;56.80
23291;DHT22;11814;44.686;10.842;2023-04-15T13:21:11;19.90;56.10
23291;DHT22;11814;44.686;10.842;2023-04-15T13:23:37;19.90;56.10
23291;DHT22;11814;44.686;10.842;2023-04-15T13:26:03;20.00;56.60
23291;DHT22;11814;44.686;10.842;2023-04-15T13:28:29;20.10;56.50
23291;DHT22;11814;44.686;10.842;2023-04-15T13:30:54;20.20;56.30
23291;DHT22;11814;44.686;10.842;2023-04-15T13:33:20;20.30;56.30
23291;DHT22;11814;44.686;10.842;2023-04-15T13:35:46;20.20;56.10
23291;DHT22;11814;44.686;10.842;2023-04-15T13:38:12;20.10;55.20
23291;DHT22;11814;44.686;10.842;2023-04-15T13:40:37;20.00;55.70
23291;DHT22;11814;44.686;10.842;2023-04-15T13:43:03;20.10;56.50
23291;DHT22;11814;44.686;10.842;2023-04-15T13:45:29;20.00;56.40
23291;DHT22;11814;44.686;10.842;2023-04-15T13:47:55;20.00;55.80
23291;DHT22;11814;44.686;10.842;2023-04-15T13:50:22;20.00;56.00
23291;DHT22;11814;44.686;10.842;2023-04-15T13:52:48;20.00;56.40
23291;DHT22;11814;44.686;10.842;2023-04-15T13:55:13;20.00;56.40
23291;DHT22;11814;44.686;10.842;2023-04-15T13:57:39;19.90;56.70
23291;DHT22;11814;44.686;10.842;2023-04-15T14:00:05;19.90;56.50
23291;DHT22;11814;44.686;10.842;2023-04-15T14:02:32;19.90;56.20
23291;DHT22;11814;44.686;10.842;2023-04-15T14:04:57;19.90;56.10
23291;DHT22;11814;44.686;10.842;2023-04-15T14:07:23;19.90;55.80
23291;DHT22;11814;44.686;10.842;2023-04-15T14:09:49;19.90;55.80
23291;DHT22;11814;44.686;10.842;2023-04-15T14:12:15;19.90;56.00
23291;DHT22;11814;44.686;10.842;2023-04-15T14:14:41;19.90;56.70
23291;DHT22;11814;44.686;10.842;2023-04-15T14:17:06;19.90;55.90
23291;DHT22;11814;44.686;10.842;2023-04-15T14:19:33;19.90;56.10
23291;DHT22;11814;44.686;10.842;2023-04-15T14:21:59;20.00;56.60
23291;DHT22;11814;44.686;10.842;2023-04-15T14:24:25;20.00;57.10
23291;DHT22;11814;44.686;10.842;2023-04-15T14:26:52;20.00;57.00
23291;DHT22;11814;44.686;10.842;2023-04-15T14:29:19;20.00;56.90
23291;DHT22;11814;44.686;10.842;2023-04-15T14:31:44;20.10;56.90
23291;DHT22;11814;44.686;10.842;2023-04-15T14:34:10;20.20;57.00
23291;DHT22;11814;44.686;10.842;2023-04-15T14:36:36;20.20;56.90
23291;DHT22;11814;44.686;10.842;2023-04-15T14:39:03;20.20;57.10
23291;DHT22;11814;44.686;10.842;2023-04-15T14:41:29;20.20;57.30
23291;DHT22;11814;44.686;10.842;2023-04-15T14:43:54;20.20;57.60
23291;DHT22;11814;44.686;10.842;2023-04-15T14:46:21;20.30;57.40
23291;DHT22;11814;44.686;10.842;2023-04-15T14:48:47;20.20;57.30
23291;DHT22;11814;44.686;10.842;2023-04-15T14:51:13;20.20;57.20
23291;DHT22;11814;44.686;10.842;2023-04-15T14:53:40;20.20;57.00
23291;DHT22;11814;44.686;10.842;2023-04-15T14:56:06;20.10;57.40
23291;DHT22;11814;44.686;10.842;2023-04-15T14:58:32;20.10;58.20
23291;DHT22;11814;44.686;10.842;2023-04-15T15:00:58;20.10;58.80
23291;DHT22;11814;44.686;10.842;2023-04-15T15:03:24;20.10;59.60
23291;DHT22;11814;44.686;10.842;2023-04-15T15:05:50;20.00;59.10
23291;DHT22;11814;44.686;10.842;2023-04-15T15:08:16;20.10;59.10
23291;DHT22;11814;44.686;10.842;2023-04-15T15:10:41;20.10;59.70
23291;DHT22;11814;44.686;10.842;2023-04-15T15:13:08;20.10;60.10
23291;DHT22;11814;44.686;10.842;2023-04-15T15:15:36;20.10;60.50
23291;DHT22;11814;44.686;10.842;2023-04-15T15:18:02;19.90;61.00
23291;DHT22;11814;44.686;10.842;2023-04-15T15:20:28;19.80;61.20
23291;DHT22;11814;44.686;10.842;2023-04-15T15:22:55;19.50;61.50
23291;DHT22;11814;44.686;10.842;2023-04-15T15:25:21;19.40;62.10
23291;DHT22;11814;44.686;10.842;2023-04-15T15:27:46;19.40;62.70
23291;DHT22;11814;44.686;10.842;2023-04-15T15:30:12;19.40;63.20
23291;DHT22;11814;44.686;10.842;2023-04-15T15:32:39;19.40;63.80
23291;DHT22;11814;44.686;10.842;2023-04-15T15:35:06;19.50;64.30
23291;DHT22;11814;44.686;10.842;2023-04-15T15:37:32;19.50;64.00
23291;DHT22;11814;44.686;10.842;2023-04-15T15:39:58;19.50;64.30
23291;DHT22;11814;44.686;10.842;2023-04-15T15:42:25;19.40;65.10
23291;DHT22;11814;44.686;10.842;2023-04-15T15:44:51;19.20;65.90
23291;DHT22;11814;44.686;10.842;2023-04-15T15:47:18;19.20;66.20